Time;durP1;ratioP1;P1;durP2;ratioP2;P2;SDS_P1;SDS_P2;PMS_P1;PMS_P2;Temp;Humidity;BMP_temperature;BMP_pressure;BME280_temperature;BME280_humidity;BME280_pressure;Samples;Min_cycle;Max_cycle;Signal;HPM_P1;HPM_P2
2023/08/20 00:00:28;;;;;;;10.30;6.75;;;24.90;99.90;;;;;;5066391;28;20033;-74
2023/08/20 00:03:16;;;;;;;10.85;7.47;;;24.80;99.90;;;;;;5057949;28;20048;-73
2023/08/20 00:05:42;;;;;;;15.35;8.10;;;24.80;99.90;;;;;;5062896;28;20024;-73
2023/08/20 00:08:08;;;;;;;13.80;7.07;;;24.70;99.90;;;;;;5062901;28;20037;-74
2023/08/20 00:10:33;;;;;;;14.65;7.68;;;24.70;99.90;;;;;;5068569;28;20017;-73
2023/08/20 00:12:59;;;;;;;10.38;7.22;;;24.70;99.90;;;;;;5063088;28;20059;-73
2023/08/20 00:15:27;;;;;;;10.85;6.82;;;24.60;99.90;;;;;;5063993;28;20025;-73
2023/08/20 00:17:53;;;;;;;15.38;7.07;;;24.60;99.90;;;;;;5058204;28;20044;-73
2023/08/20 00:20:19;;;;;;;12.18;7.68;;;24.60;99.90;;;;;;5059002;28;20043;-73
2023/08/20 00:22:46;;;;;;;10.95;6.90;;;24.50;99.90;;;;;;5058557;28;20029;-73
2023/08/20 00:25:13;;;;;;;14.18;8.27;;;24.60;99.90;;;;;;5058419;28;20044;-73
2023/08/20 00:27:40;;;;;;;9.75;6.88;;;24.50;99.90;;;;;;5058088;28;20033;-74
2023/08/20 00:30:06;;;;;;;14.45;7.15;;;24.40;99.90;;;;;;5057502;28;20017;-74
2023/08/20 00:32:32;;;;;;;13.82;7.50;;;24.40;99.90;;;;;;5064273;28;20025;-73
2023/08/20 00:34:57;;;;;;;9.30;7.03;;;24.20;99.90;;;;;;5058350;28;20056;-74
2023/08/20 00:37:23;;;;;;;9.82;7.30;;;24.20;99.90;;;;;;5066688;28;20040;-73
2023/08/20 00:39:48;;;;;;;14.35;7.00;;;24.20;99.90;;;;;;5068296;28;20028;-74
2023/08/20 00:42:14;;;;;;;14.13;7.63;;;24.20;99.90;;;;;;5066937;28;20033;-74
2023/08/20 00:44:41;;;;;;;9.32;6.93;;;24.10;99.90;;;;;;5068376;28;20025;-73
2023/08/20 00:47:08;;;;;;;10.48;6.85;;;24.10;99.90;;;;;;5066747;28;20033;-73
2023/08/20 00:49:34;;;;;;;8.90;7.15;;;24.10;99.90;;;;;;5068144;28;20024;-73
2023/08/20 00:52:01;;;;;;;13.73;7.60;;;24.00;99.90;;;;;;5067042;28;20437;-73
2023/08/20 00:54:28;;;;;;;10.60;7.82;;;24.00;99.90;;;;;;5068423;28;20024;-74
2023/08/20 00:56:54;;;;;;;11.00;7.18;;;23.90;99.90;;;;;;5067285;28;20473;-73
2023/08/20 00:59:21;;;;;;;11.95;7.00;;;23.90;99.90;;;;;;5068403;28;20028;-73
2023/08/20 01:01:46;;;;;;;14.43;7.20;;;23.90;99.90;;;;;;5065946;28;20035;-74
2023/08/20 01:04:12;;;;;;;16.00;8.15;;;23.80;99.90;;;;;;5066492;28;20025;-73
2023/08/20 01:06:59;;;;;;;15.40;7.45;;;23.90;99.90;;;;;;5065757;28;20154;-73
2023/08/20 01:09:40;;;;;;;17.65;8.13;;;23.80;99.90;;;;;;5063884;28;20055;-73
2023/08/20 01:12:07;;;;;;;14.63;7.90;;;23.70;99.90;;;;;;5048638;28;20021;-73
2023/08/20 01:14:32;;;;;;;13.18;7.47;;;23.70;99.90;;;;;;5066693;28;20075;-73
2023/08/20 01:16:58;;;;;;;11.80;8.02;;;23.70;99.90;;;;;;5069044;28;20025;-74
2023/08/20 01:19:24;;;;;;;9.60;7.28;;;23.60;99.90;;;;;;5071673;28;20024;-73
2023/08/20 01:22:11;;;;;;;13.60;8.02;;;23.60;99.90;;;;;;5061557;28;20131;-73
2023/08/20 01:24:40;;;;;;;11.70;7.30;;;23.50;99.90;;;;;;5058296;28;20505;-74
2023/08/20 01:27:26;;;;;;;10.75;8.07;;;23.50;99.90;;;;;;5059024;28;20032;-73
2023/08/20 01:29:53;;;;;;;20.10;7.65;;;23.50;99.90;;;;;;5070793;28;20081;-74
2023/08/20 01:32:19;;;;;;;20.20;8.60;;;23.40;99.90;;;;;;5073942;28;20028;-74
2023/08/20 01:34:45;;;;;;;15.13;8.27;;;23.40;99.90;;;;;;5074175;28;20082;-74
2023/08/20 01:37:11;;;;;;;13.18;8.70;;;23.40;99.90;;;;;;5073695;28;20558;-73
2023/08/20 01:39:37;;;;;;;10.82;7.43;;;23.40;99.90;;;;;;5074749;28;20028;-73
2023/08/20 01:42:03;;;;;;;13.07;8.10;;;23.40;99.90;;;;;;5074111;28;20016;-74
2023/08/20 01:44:28;;;;;;;14.93;7.70;;;23.30;99.90;;;;;;5074357;28;20021;-73
2023/08/20 01:46:54;;;;;;;14.18;9.07;;;23.30;99.90;;;;;;5068021;28;20488;-73
2023/08/20 01:49:19;;;;;;;13.73;7.22;;;23.30;99.90;;;;;;5064586;28;20028;-73
2023/08/20 01:51:45;;;;;;;10.68;7.82;;;23.30;99.90;;;;;;5060191;28;20029;-73
2023/08/20 01:54:11;;;;;;;10.60;7.75;;;23.30;99.90;;;;;;5062697;28;20024;-73
2023/08/20 01:56:37;;;;;;;15.43;8.30;;;23.30;99.90;;;;;;5059660;28;20017;-74
2023/08/20 01:59:02;;;;;;;13.35;8.80;;;23.30;99.90;;;;;;5064450;28;20083;-74
2023/08/20 02:01:28;;;;;;;12.95;8.32;;;23.20;99.90;;;;;;5060316;28;20025;-74
2023/08/20 02:03:53;;;;;;;12.25;7.20;;;23.10;99.90;;;;;;5074916;28;20535;-74
2023/08/20 02:06:19;;;;;;;10.93;7.18;;;23.00;99.90;;;;;;5058384;28;20041;-74
2023/08/20 02:08:45;;;;;;;12.95;7.68;;;23.00;99.90;;;;;;5068577;28;20487;-74
2023/08/20 02:11:10;;;;;;;15.85;9.48;;;23.00;99.90;;;;;;5060407;28;20559;-73
2023/08/20 02:13:36;;;;;;;13.25;8.48;;;23.00;99.90;;;;;;5064511;28;20035;-74
2023/08/20 02:16:03;;;;;;;13.75;8.90;;;22.90;99.90;;;;;;5060913;28;20025;-74
2023/08/20 02:18:30;;;;;;;12.43;8.88;;;22.90;99.90;;;;;;5063563;28;20021;-73
2023/08/20 02:20:56;;;;;;;11.63;8.60;;;22.90;99.90;;;;;;5057280;28;20018;-74
2023/08/20 02:23:22;;;;;;;11.35;9.00;;;22.90;99.90;;;;;;5058796;28;20455;-74
2023/08/20 02:25:48;;;;;;;16.08;9.88;;;22.90;99.90;;;;;;5057951;28;20025;-73
2023/08/20 02:28:14;;;;;;;13.80;9.65;;;22.80;99.90;;;;;;5058613;28;20037;-74
2023/08/20 02:30:45;;;;;;;12.93;8.93;;;22.80;99.90;;;;;;5057681;28;20029;-73
2023/08/20 02:33:11;;;;;;;12.75;8.38;;;22.80;99.90;;;;;;5058516;28;20030;-74
2023/08/20 02:35:38;;;;;;;13.43;9.65;;;22.70;99.90;;;;;;5058095;28;20394;-73
2023/08/20 02:38:04;;;;;;;14.57;9.63;;;22.70;99.90;;;;;;5070539;28;20021;-73
2023/08/20 02:40:30;;;;;;;14.63;9.23;;;22.70;99.90;;;;;;5066812;28;20029;-73
2023/08/20 02:42:56;;;;;;;14.10;10.52;;;22.70;99.90;;;;;;5070627;28;20036;-73
2023/08/20 02:45:22;;;;;;;11.13;8.52;;;22.70;99.90;;;;;;5066396;28;20025;-74
2023/08/20 02:47:48;;;;;;;14.05;9.57;;;22.60;99.90;;;;;;5070661;28;20492;-73
2023/08/20 02:50:14;;;;;;;12.95;10.15;;;22.60;99.90;;;;;;5065344;28;20021;-73
2023/08/20 02:52:44;;;;;;;15.32;10.85;;;22.50;99.90;;;;;;5069427;28;20082;-73
2023/08/20 02:55:10;;;;;;;12.75;10.30;;;22.50;99.90;;;;;;5067378;28;20012;-74
2023/08/20 02:57:36;;;;;;;11.65;10.45;;;22.50;99.90;;;;;;5070716;28;20036;-74
2023/08/20 03:00:02;;;;;;;16.98;11.30;;;22.50;99.90;;;;;;5067402;28;20020;-74
2023/08/20 03:02:28;;;;;;;14.18;10.35;;;22.50;99.90;;;;;;5069385;28;20039;-74
2023/08/20 03:04:55;;;;;;;13.73;10.13;;;22.50;99.90;;;;;;5067368;28;20488;-73
2023/08/20 03:07:22;;;;;;;19.58;11.27;;;22.50;99.90;;;;;;5070211;28;20032;-73
2023/08/20 03:09:48;;;;;;;15.70;10.90;;;22.50;99.90;;;;;;5067849;28;20021;-74
2023/08/20 03:12:13;;;;;;;16.05;10.38;;;22.50;99.90;;;;;;5069543;28;20021;-74
2023/08/20 03:14:39;;;;;;;12.35;10.07;;;22.50;99.90;;;;;;5066331;28;20045;-73
2023/08/20 03:17:05;;;;;;;13.75;10.68;;;22.40;99.90;;;;;;5067215;28;20021;-73
2023/08/20 03:19:35;;;;;;;17.23;10.60;;;22.40;99.90;;;;;;5058473;28;20021;-74
2023/08/20 03:22:01;;;;;;;15.00;10.60;;;22.40;99.90;;;;;;5058540;28;20017;-74
2023/08/20 03:24:26;;;;;;;16.58;10.45;;;22.30;99.90;;;;;;5066962;28;20186;-74
2023/08/20 03:26:52;;;;;;;16.15;11.13;;;22.30;99.90;;;;;;5067536;28;20508;-74
2023/08/20 03:29:17;;;;;;;11.88;9.55;;;22.20;99.90;;;;;;5066517;28;20036;-73
2023/08/20 03:31:43;;;;;;;13.60;9.57;;;22.30;99.90;;;;;;5065400;28;20095;-73
2023/08/20 03:34:09;;;;;;;12.57;9.85;;;22.20;99.90;;;;;;5050346;28;20041;-73
2023/08/20 03:36:35;;;;;;;14.10;9.93;;;22.20;99.90;;;;;;5067961;28;20020;-73
2023/08/20 03:39:01;;;;;;;13.05;9.32;;;22.20;99.90;;;;;;5063809;28;20447;-74
2023/08/20 03:41:26;;;;;;;14.48;9.60;;;22.20;99.90;;;;;;5067748;28;20024;-73
2023/08/20 03:43:52;;;;;;;17.20;9.23;;;22.20;99.90;;;;;;5063638;28;20039;-73
2023/08/20 03:46:17;;;;;;;11.32;9.32;;;22.20;99.90;;;;;;5068451;28;20021;-73
2023/08/20 03:48:43;;;;;;;15.45;10.07;;;22.20;99.90;;;;;;5075483;28;20032;-73
2023/08/20 03:51:09;;;;;;;15.80;9.80;;;22.20;99.90;;;;;;5074253;28;20079;-73
2023/08/20 03:53:34;;;;;;;13.52;9.23;;;22.10;99.90;;;;;;5075850;28;20494;-74
2023/08/20 03:56:00;;;;;;;13.30;9.75;;;22.10;99.90;;;;;;5074277;28;20032;-74
2023/08/20 03:58:26;;;;;;;14.25;9.52;;;22.00;99.90;;;;;;5074283;28;20483;-74
2023/08/20 04:00:51;;;;;;;15.75;9.07;;;22.00;99.90;;;;;;5074366;28;20599;-73
2023/08/20 04:03:19;;;;;;;15.40;9.57;;;22.10;99.90;;;;;;5075072;28;20044;-74
2023/08/20 04:05:45;;;;;;;13.60;9.65;;;22.00;99.90;;;;;;5073475;28;20056;-74
2023/08/20 04:08:10;;;;;;;16.23;10.68;;;22.10;99.90;;;;;;5075073;28;20078;-73
2023/08/20 04:10:42;;;;;;;14.13;9.10;;;22.00;99.90;;;;;;5073786;28;20024;-74
2023/08/20 04:13:07;;;;;;;13.65;9.32;;;22.10;99.90;;;;;;5051691;28;20567;-73
2023/08/20 04:15:33;;;;;;;13.02;10.10;;;22.00;99.90;;;;;;5073585;28;20106;-73
2023/08/20 04:17:59;;;;;;;10.20;8.60;;;22.10;99.90;;;;;;5074471;28;20499;-73
2023/08/20 04:20:24;;;;;;;11.45;8.77;;;22.10;99.90;;;;;;5068144;28;20029;-73
2023/08/20 04:22:50;;;;;;;12.32;8.95;;;22.00;99.90;;;;;;5074894;28;20796;-73
2023/08/20 04:25:16;;;;;;;12.50;8.45;;;22.10;99.90;;;;;;5072870;28;20044;-73
2023/08/20 04:27:41;;;;;;;14.00;8.85;;;22.00;99.90;;;;;;5074742;28;20056;-74
2023/08/20 04:30:08;;;;;;;15.35;9.98;;;22.10;99.90;;;;;;5073329;28;20480;-73
2023/08/20 04:32:33;;;;;;;15.82;9.35;;;22.00;99.90;;;;;;5074815;28;20040;-74
2023/08/20 04:34:59;;;;;;;18.95;9.18;;;22.00;99.90;;;;;;5073515;28;20020;-74
2023/08/20 04:37:25;;;;;;;9.60;8.18;;;22.00;99.90;;;;;;5074800;28;20028;-74
2023/08/20 04:39:50;;;;;;;15.60;8.85;;;21.90;99.90;;;;;;5072470;28;20052;-74
2023/08/20 04:42:16;;;;;;;15.82;9.80;;;22.00;99.90;;;;;;5073598;28;20032;-74
2023/08/20 04:44:42;;;;;;;11.90;9.05;;;21.90;99.90;;;;;;5072814;28;20036;-74
2023/08/20 04:47:12;;;;;;;18.85;10.15;;;21.90;99.90;;;;;;5074782;28;20112;-74
2023/08/20 04:49:38;;;;;;;12.13;8.90;;;21.90;99.90;;;;;;5073746;28;20497;-74
2023/08/20 04:52:04;;;;;;;12.80;8.82;;;21.90;99.90;;;;;;5075355;28;20020;-74
2023/08/20 04:54:29;;;;;;;11.27;8.27;;;21.90;99.90;;;;;;5074128;28;20412;-74
2023/08/20 04:56:55;;;;;;;14.10;10.50;;;21.90;99.90;;;;;;5074952;28;20017;-74
2023/08/20 04:59:21;;;;;;;14.60;9.63;;;21.80;99.90;;;;;;5072097;28;20040;-74
2023/08/20 05:01:46;;;;;;;16.67;9.25;;;21.80;99.90;;;;;;5075077;28;20408;-74
2023/08/20 05:04:12;;;;;;;12.13;9.23;;;21.80;99.90;;;;;;5071742;28;20024;-74
2023/08/20 05:06:38;;;;;;;14.35;8.80;;;21.80;99.90;;;;;;5074442;28;20029;-74
2023/08/20 05:09:03;;;;;;;12.27;8.63;;;21.80;99.90;;;;;;5070491;28;20067;-74
2023/08/20 05:11:31;;;;;;;15.98;8.95;;;21.80;99.90;;;;;;5049838;28;20478;-74
2023/08/20 05:13:57;;;;;;;13.45;10.60;;;21.80;99.90;;;;;;5070517;28;20114;-74
2023/08/20 05:16:22;;;;;;;13.50;9.65;;;21.80;99.90;;;;;;5074093;28;20048;-74
2023/08/20 05:18:48;;;;;;;16.10;9.90;;;21.70;99.90;;;;;;5070744;28;20382;-74
2023/08/20 05:21:14;;;;;;;11.27;9.60;;;21.80;99.90;;;;;;5068730;28;20029;-74
2023/08/20 05:23:40;;;;;;;19.00;10.63;;;21.80;99.90;;;;;;5071295;28;20088;-74
2023/08/20 05:26:07;;;;;;;13.93;9.15;;;21.80;99.90;;;;;;5073185;28;20021;-74
2023/08/20 05:28:33;;;;;;;12.43;9.88;;;21.80;99.90;;;;;;5069708;28;20094;-74
2023/08/20 05:30:59;;;;;;;13.18;9.55;;;21.80;99.90;;;;;;5071789;28;20017;-74
2023/08/20 05:33:25;;;;;;;14.00;10.25;;;21.90;99.90;;;;;;5069794;28;20107;-74
2023/08/20 05:35:50;;;;;;;16.50;11.73;;;21.90;99.90;;;;;;5072113;28;20027;-74
2023/08/20 05:38:16;;;;;;;12.05;9.50;;;21.90;99.90;;;;;;5057956;28;20064;-74
2023/08/20 05:40:42;;;;;;;12.45;9.88;;;22.00;99.90;;;;;;5049108;28;20040;-74
2023/08/20 05:43:08;;;;;;;19.75;9.85;;;22.00;99.90;;;;;;5071846;28;20031;-74
2023/08/20 05:45:34;;;;;;;15.43;10.13;;;22.10;99.90;;;;;;5072419;28;20052;-74
2023/08/20 05:48:00;;;;;;;12.23;9.27;;;22.20;99.90;;;;;;5071974;28;20043;-74
2023/08/20 05:50:25;;;;;;;15.35;10.55;;;22.20;99.90;;;;;;5073530;28;20095;-74
2023/08/20 05:52:52;;;;;;;12.10;10.63;;;22.20;99.90;;;;;;5072263;28;20071;-74
2023/08/20 05:55:18;;;;;;;15.07;11.77;;;22.30;99.90;;;;;;5073288;28;20036;-74
2023/08/20 05:57:43;;;;;;;20.98;12.45;;;22.30;99.90;;;;;;5072533;28;20028;-74
2023/08/20 06:00:10;;;;;;;19.08;12.30;;;22.40;99.90;;;;;;5074424;28;20043;-74
2023/08/20 06:02:36;;;;;;;14.20;11.38;;;22.40;99.90;;;;;;5070914;28;20028;-74
2023/08/20 06:05:04;;;;;;;18.42;12.85;;;22.50;99.90;;;;;;5067260;28;20028;-74
2023/08/20 06:07:30;;;;;;;15.60;10.50;;;22.60;99.90;;;;;;5065308;28;20558;-74
2023/08/20 06:09:56;;;;;;;14.68;12.38;;;22.60;99.90;;;;;;5072516;28;20040;-75
2023/08/20 06:12:22;;;;;;;16.05;11.80;;;22.70;99.90;;;;;;5071612;28;20033;-74
2023/08/20 06:14:48;;;;;;;12.45;11.20;;;22.80;99.90;;;;;;5073374;28;20460;-71
2023/08/20 06:17:14;;;;;;;17.95;11.90;;;23.00;99.90;;;;;;5071636;28;20447;-71
2023/08/20 06:19:40;;;;;;;14.98;11.05;;;23.00;99.90;;;;;;5073063;28;20074;-71
2023/08/20 06:22:05;;;;;;;15.75;11.98;;;23.10;99.90;;;;;;5064637;28;20029;-70
2023/08/20 06:24:31;;;;;;;14.40;10.77;;;23.20;99.90;;;;;;5047180;28;20157;-71
2023/08/20 06:26:57;;;;;;;15.73;9.77;;;23.40;99.90;;;;;;5069710;28;20032;-70
2023/08/20 06:29:22;;;;;;;15.40;10.30;;;23.50;99.90;;;;;;5071035;28;20028;-71
2023/08/20 06:31:48;;;;;;;13.70;8.43;;;23.70;99.90;;;;;;5069338;28;20035;-71
2023/08/20 06:34:14;;;;;;;11.55;8.15;;;23.90;99.90;;;;;;5048619;28;20103;-70
2023/08/20 06:36:40;;;;;;;16.88;8.35;;;24.10;99.90;;;;;;5070149;28;20102;-70
2023/08/20 06:39:06;;;;;;;11.50;8.02;;;24.30;99.90;;;;;;5072632;28;20021;-70
2023/08/20 06:41:31;;;;;;;13.25;8.35;;;24.40;99.90;;;;;;5069731;28;20052;-70
2023/08/20 06:43:57;;;;;;;12.15;8.27;;;24.50;99.90;;;;;;5048654;28;20075;-70
2023/08/20 06:46:24;;;;;;;11.82;7.70;;;24.60;99.90;;;;;;5069436;28;20108;-71
2023/08/20 06:48:49;;;;;;;13.00;7.70;;;24.70;99.90;;;;;;5047349;28;20028;-71
2023/08/20 06:51:15;;;;;;;14.93;8.05;;;24.80;99.90;;;;;;5068858;28;20024;-71
2023/08/20 06:53:41;;;;;;;10.27;6.45;;;24.90;99.90;;;;;;5065878;28;20025;-70
2023/08/20 06:56:11;;;;;;;14.65;7.32;;;24.90;99.90;;;;;;5069084;28;20016;-70
2023/08/20 06:58:40;;;;;;;14.73;8.45;;;25.00;99.90;;;;;;5073091;28;20087;-71
2023/08/20 07:01:09;;;;;;;10.05;7.40;;;25.00;99.90;;;;;;5060437;28;20087;-71
2023/08/20 07:03:40;;;;;;;13.25;6.65;;;25.10;99.90;;;;;;5056527;28;20029;-70
2023/08/20 07:06:06;;;;;;;9.85;7.72;;;25.30;99.90;;;;;;5059649;28;20100;-71
2023/08/20 07:08:32;;;;;;;11.57;6.88;;;25.40;99.90;;;;;;5072194;28;20087;-71
2023/08/20 07:10:58;;;;;;;11.23;6.22;;;25.50;99.90;;;;;;5076221;28;20504;-70
2023/08/20 07:13:24;;;;;;;12.98;7.28;;;25.60;99.90;;;;;;5077566;28;20090;-70
2023/08/20 07:15:50;;;;;;;13.07;7.55;;;25.60;99.90;;;;;;5077391;28;20021;-71
2023/08/20 07:18:16;;;;;;;11.15;6.72;;;25.80;99.90;;;;;;5078267;28;20111;-71
2023/08/20 07:20:43;;;;;;;11.70;7.80;;;25.90;99.90;;;;;;5072680;28;20059;-71
2023/08/20 07:23:09;;;;;;;16.52;6.70;;;26.00;99.90;;;;;;5078269;28;20028;-71
2023/08/20 07:25:39;;;;;;;11.13;6.55;;;26.10;99.90;;;;;;5073567;28;20405;-70
2023/08/20 07:28:08;;;;;;;13.43;5.75;;;26.20;99.90;;;;;;5069733;28;20025;-70
2023/08/20 07:30:35;;;;;;;6.53;5.55;;;26.30;99.90;;;;;;5066966;28;20041;-71
2023/08/20 07:33:01;;;;;;;8.68;6.15;;;26.40;99.90;;;;;;5070517;28;20417;-70
2023/08/20 07:35:27;;;;;;;9.25;6.22;;;26.50;99.90;;;;;;5067163;28;20017;-71
2023/08/20 07:37:53;;;;;;;33.65;8.25;;;26.50;99.90;;;;;;5071634;28;20540;-71
2023/08/20 07:40:18;;;;;;;11.18;5.85;;;26.60;99.90;;;;;;5067941;28;20028;-70
2023/08/20 07:42:44;;;;;;;14.10;7.78;;;26.70;99.90;;;;;;5071022;28;20024;-71
2023/08/20 07:45:10;;;;;;;15.65;6.75;;;26.70;99.90;;;;;;5068738;28;20017;-71
2023/08/20 07:47:37;;;;;;;13.27;6.05;;;26.70;99.90;;;;;;5053300;28;20062;-71
2023/08/20 07:50:04;;;;;;;11.90;6.32;;;26.70;99.90;;;;;;5062992;28;20032;-71
2023/08/20 07:52:30;;;;;;;8.43;6.72;;;26.80;99.90;;;;;;5062378;28;20032;-71
2023/08/20 07:54:56;;;;;;;12.30;5.95;;;26.90;99.90;;;;;;5061956;28;20093;-71
2023/08/20 07:57:23;;;;;;;11.38;6.40;;;26.90;99.90;;;;;;5062552;28;20489;-70
2023/08/20 07:59:49;;;;;;;11.48;7.63;;;27.00;99.90;;;;;;5072536;28;20053;-71
2023/08/20 08:02:15;;;;;;;10.82;7.13;;;27.00;99.90;;;;;;5068967;28;20033;-70
2023/08/20 08:04:41;;;;;;;10.15;6.05;;;27.10;99.90;;;;;;5066364;28;20024;-70
2023/08/20 08:07:07;;;;;;;9.93;6.18;;;27.10;99.90;;;;;;5051720;28;20029;-70
2023/08/20 08:09:33;;;;;;;9.38;6.18;;;27.20;99.90;;;;;;5055713;28;20021;-70
2023/08/20 08:11:59;;;;;;;12.25;6.40;;;27.30;99.90;;;;;;5058904;28;20040;-70
2023/08/20 08:14:25;;;;;;;12.35;6.10;;;27.40;99.90;;;;;;5056054;28;20035;-70
2023/08/20 08:16:51;;;;;;;10.82;5.60;;;27.50;99.90;;;;;;5056320;28;20619;-70
2023/08/20 08:19:17;;;;;;;14.32;6.65;;;27.60;99.90;;;;;;5050312;28;20025;-70
2023/08/20 08:21:44;;;;;;;12.63;6.20;;;27.70;99.90;;;;;;5059378;28;20404;-71
2023/08/20 08:24:11;;;;;;;12.18;6.75;;;27.80;99.90;;;;;;5055959;28;20156;-70
2023/08/20 08:26:37;;;;;;;10.57;6.05;;;27.90;99.90;;;;;;5060010;28;20385;-71
2023/08/20 08:29:03;;;;;;;13.60;6.25;;;27.90;99.90;;;;;;5053508;28;20028;-70
2023/08/20 08:31:29;;;;;;;11.90;6.45;;;27.90;99.90;;;;;;5053425;28;20082;-70
2023/08/20 08:33:55;;;;;;;7.57;5.05;;;28.00;99.90;;;;;;5059690;28;20096;-71
2023/08/20 08:36:21;;;;;;;11.15;5.65;;;28.10;99.90;;;;;;5054498;28;20727;-71
2023/08/20 08:38:46;;;;;;;7.97;5.35;;;28.30;99.90;;;;;;5056115;28;20114;-70
2023/08/20 08:41:13;;;;;;;10.95;5.43;;;28.50;99.90;;;;;;5057437;28;20028;-71
2023/08/20 08:43:39;;;;;;;11.68;5.57;;;28.50;99.90;;;;;;5052268;28;20025;-70
2023/08/20 08:46:15;;;;;;;12.38;6.13;;;28.70;99.90;;;;;;5059048;28;20033;-71
2023/08/20 08:48:43;;;;;;;9.63;5.57;;;28.70;99.90;;;;;;5059433;28;20092;-71
2023/08/20 08:51:09;;;;;;;12.70;5.72;;;28.70;99.90;;;;;;5056526;28;20488;-71
2023/08/20 08:53:36;;;;;;;12.40;6.25;;;28.80;99.90;;;;;;5057971;28;20393;-71
2023/08/20 08:56:02;;;;;;;7.75;4.85;;;28.80;99.90;;;;;;5057387;28;20037;-70
2023/08/20 08:58:28;;;;;;;8.82;4.85;;;28.80;99.90;;;;;;5058274;28;20028;-72
2023/08/20 09:00:54;;;;;;;12.43;5.15;;;28.90;99.90;;;;;;5055934;28;20093;-71
2023/08/20 09:03:20;;;;;;;8.95;4.90;;;29.00;99.90;;;;;;5061174;28;20528;-72
2023/08/20 09:05:54;;;;;;;12.52;5.38;;;29.00;99.90;;;;;;5056727;28;20025;-72
2023/08/20 09:08:27;;;;;;;10.90;4.85;;;29.10;99.90;;;;;;5057834;28;20029;-73
2023/08/20 09:10:55;;;;;;;12.13;5.03;;;29.30;99.90;;;;;;5053962;28;20025;-72
2023/08/20 09:13:26;;;;;;;14.07;4.72;;;29.50;99.90;;;;;;5049210;28;20063;-72
2023/08/20 09:15:54;;;;;;;8.15;5.30;;;29.60;99.90;;;;;;5055038;28;20051;-72
2023/08/20 09:18:20;;;;;;;11.70;5.03;;;29.60;99.90;;;;;;5060245;28;20017;-71
2023/08/20 09:20:49;;;;;;;10.75;4.32;;;29.70;99.90;;;;;;5054913;28;20035;-72
2023/08/20 09:23:15;;;;;;;12.88;5.10;;;29.80;99.90;;;;;;5051672;28;20024;-72
2023/08/20 09:25:42;;;;;;;8.77;5.13;;;29.90;99.90;;;;;;5050903;28;20047;-72
2023/08/20 09:28:08;;;;;;;13.82;5.43;;;29.90;99.90;;;;;;5055288;28;20044;-72
2023/08/20 09:30:34;;;;;;;10.07;4.95;;;29.90;99.90;;;;;;5053854;28;20021;-72
2023/08/20 09:33:04;;;;;;;7.57;4.35;;;30.00;99.90;;;;;;5056483;28;20074;-72
2023/08/20 09:35:30;;;;;;;11.88;5.55;;;30.10;99.90;;;;;;5056868;28;20031;-72
2023/08/20 09:38:03;;;;;;;8.13;4.60;;;30.20;99.90;;;;;;5059749;28;20541;-72
2023/08/20 09:40:30;;;;;;;10.95;5.07;;;30.40;99.90;;;;;;5055888;28;20075;-72
2023/08/20 09:42:56;;;;;;;8.90;4.85;;;30.50;99.90;;;;;;5054210;28;20023;-72
2023/08/20 09:45:27;;;;;;;11.45;5.10;;;30.70;99.90;;;;;;5055375;28;20419;-72
2023/08/20 09:47:56;;;;;;;11.68;4.20;;;30.70;99.90;;;;;;5048231;28;20485;-72
2023/08/20 09:50:23;;;;;;;9.05;4.55;;;30.80;99.90;;;;;;5055682;28;20033;-72
2023/08/20 09:52:54;;;;;;;11.45;4.50;;;30.80;99.90;;;;;;5055656;28;20021;-71
2023/08/20 09:55:32;;;;;;;8.80;3.97;;;30.90;99.90;;;;;;5056062;28;20075;-72
2023/08/20 09:58:00;;;;;;;10.23;3.92;;;30.90;99.90;;;;;;5052459;28;20028;-72
2023/08/20 10:00:27;;;;;;;10.77;4.47;;;31.00;99.90;;;;;;5057030;28;20063;-73
2023/08/20 10:02:53;;;;;;;6.88;4.68;;;31.10;99.90;;;;;;5059177;28;20397;-72
2023/08/20 10:05:20;;;;;;;12.30;4.65;;;31.20;99.90;;;;;;5055815;28;20099;-72
2023/08/20 10:07:46;;;;;;;13.60;4.13;;;31.30;99.90;;;;;;5050891;28;20021;-71
2023/08/20 10:10:13;;;;;;;8.40;4.60;;;31.40;99.90;;;;;;5054004;28;20535;-71
2023/08/20 10:12:40;;;;;;;6.30;3.97;;;31.40;99.90;;;;;;5054403;28;20068;-72
2023/08/20 10:15:09;;;;;;;14.63;4.85;;;31.30;99.90;;;;;;5054428;28;20074;-72
2023/08/20 10:17:36;;;;;;;12.10;4.93;;;31.40;99.90;;;;;;5056842;28;20024;-72
2023/08/20 10:20:04;;;;;;;13.80;4.70;;;31.50;99.90;;;;;;5055606;28;20028;-72
2023/08/20 10:22:33;;;;;;;7.47;3.67;;;31.50;99.90;;;;;;5058834;28;20025;-71
2023/08/20 10:25:00;;;;;;;9.13;5.00;;;31.70;99.90;;;;;;5056499;28;20095;-72
2023/08/20 10:27:34;;;;;;;13.85;4.90;;;31.70;99.90;;;;;;5054433;28;20024;-72
2023/08/20 10:30:02;;;;;;;9.80;4.43;;;31.70;99.90;;;;;;5054005;28;20493;-72
2023/08/20 10:33:03;;;;;;;9.75;3.83;;;31.70;99.90;;;;;;5058618;28;20013;-72
2023/08/20 10:35:38;;;;;;;9.35;4.15;;;31.80;99.90;;;;;;5060275;28;20123;-73
2023/08/20 10:38:04;;;;;;;12.55;4.70;;;31.90;99.90;;;;;;5054813;28;20029;-73
2023/08/20 10:40:56;;;;;;;9.70;4.97;;;31.90;99.90;;;;;;5057065;28;20527;-72
2023/08/20 10:43:35;;;;;;;12.02;4.20;;;31.80;99.90;;;;;;5058796;28;20401;-72
2023/08/20 10:46:17;;;;;;;10.95;3.95;;;31.90;99.90;;;;;;5057525;28;20021;-74
2023/08/20 10:48:53;;;;;;;12.20;4.20;;;32.00;99.90;;;;;;5062575;28;20025;-72
2023/08/20 10:51:30;;;;;;;11.30;4.85;;;31.90;99.90;;;;;;5058079;28;20051;-72
2023/08/20 10:54:03;;;;;;;12.63;5.10;;;32.00;99.90;;;;;;5059752;28;20492;-72
2023/08/20 10:56:41;;;;;;;11.48;4.57;;;32.10;99.90;;;;;;5053644;28;20021;-71
2023/08/20 10:59:17;;;;;;;8.98;3.90;;;32.20;99.90;;;;;;5059737;28;20040;-72
2023/08/20 11:01:45;;;;;;;7.68;4.15;;;32.30;99.90;;;;;;5061985;28;20128;-72
2023/08/20 11:04:11;;;;;;;9.10;5.70;;;32.40;99.90;;;;;;5058629;28;20028;-72
2023/08/20 11:06:37;;;;;;;7.53;4.28;;;32.50;99.90;;;;;;5056358;28;20035;-72
2023/08/20 11:09:05;;;;;;;13.57;5.05;;;32.50;99.90;;;;;;5059716;28;20033;-72
2023/08/20 11:11:32;;;;;;;10.65;3.97;;;32.60;99.90;;;;;;5061811;28;20028;-72
2023/08/20 11:14:06;;;;;;;10.93;4.40;;;32.60;99.90;;;;;;5059829;28;20029;-72
2023/08/20 11:16:31;;;;;;;10.32;3.92;;;32.60;99.90;;;;;;5061474;28;20081;-72
2023/08/20 11:18:57;;;;;;;7.65;5.07;;;32.60;99.90;;;;;;5058070;28;20033;-72
2023/08/20 11:21:23;;;;;;;12.02;4.50;;;32.60;99.90;;;;;;5061403;28;20032;-73
2023/08/20 11:23:49;;;;;;;11.60;4.75;;;32.70;99.90;;;;;;5054234;28;20049;-72
2023/08/20 11:26:15;;;;;;;9.75;4.80;;;32.70;99.90;;;;;;5060131;28;20043;-72
2023/08/20 11:28:46;;;;;;;11.02;5.38;;;32.70;99.90;;;;;;5061468;28;20033;-73
2023/08/20 11:31:12;;;;;;;7.93;4.45;;;32.70;99.90;;;;;;5059393;28;20167;-72
2023/08/20 11:33:38;;;;;;;13.15;4.00;;;32.70;99.90;;;;;;5061464;28;20064;-72
2023/08/20 11:36:05;;;;;;;14.07;4.15;;;32.80;99.90;;;;;;5056645;28;20146;-73
2023/08/20 11:38:31;;;;;;;8.07;3.70;;;32.90;99.90;;;;;;5054537;28;20029;-74
2023/08/20 11:40:59;;;;;;;13.13;5.03;;;33.00;99.90;;;;;;5062838;28;20032;-73
2023/08/20 11:43:28;;;;;;;8.23;4.63;;;33.20;99.90;;;;;;5063191;28;20567;-72
2023/08/20 11:45:54;;;;;;;13.23;4.73;;;33.30;99.90;;;;;;5061047;28;20036;-71
2023/08/20 11:48:21;;;;;;;7.90;4.53;;;33.30;99.70;;;;;;5056755;28;20103;-71
2023/08/20 11:50:47;;;;;;;9.02;4.85;;;33.30;98.50;;;;;;5057308;28;20120;-71
2023/08/20 11:53:13;;;;;;;7.13;4.30;;;33.40;99.90;;;;;;5061283;28;20017;-71
2023/08/20 11:55:42;;;;;;;9.80;4.30;;;33.50;99.90;;;;;;5059498;28;20040;-72
2023/08/20 11:58:14;;;;;;;10.48;4.90;;;33.70;99.10;;;;;;5066829;28;20056;-71
2023/08/20 12:00:40;;;;;;;7.35;3.90;;;33.70;98.60;;;;;;5073275;28;20550;-72
2023/08/20 12:03:07;;;;;;;7.15;3.97;;;33.70;98.50;;;;;;5070616;28;20114;-70
2023/08/20 12:05:33;;;;;;;12.00;4.95;;;33.70;99.00;;;;;;5073179;28;20021;-71
2023/08/20 12:08:02;;;;;;;9.85;3.95;;;33.70;99.60;;;;;;5070503;28;20073;-71
2023/08/20 12:10:29;;;;;;;9.25;3.97;;;33.70;98.00;;;;;;5070110;28;20051;-71
2023/08/20 12:12:56;;;;;;;9.70;4.97;;;33.70;99.00;;;;;;5066426;28;20029;-71
2023/08/20 12:15:22;;;;;;;9.52;4.50;;;33.80;97.30;;;;;;5069400;28;20025;-72
2023/08/20 12:17:57;;;;;;;10.18;4.60;;;33.80;97.10;;;;;;5074207;28;20420;-71
2023/08/20 12:20:23;;;;;;;9.68;4.68;;;33.90;97.50;;;;;;5065383;28;20033;-71
2023/08/20 12:22:49;;;;;;;15.35;4.53;;;34.00;95.80;;;;;;5048969;28;20036;-71
2023/08/20 12:25:14;;;;;;;6.95;3.95;;;34.00;94.30;;;;;;5062411;28;20052;-71
2023/08/20 12:27:41;;;;;;;7.93;3.80;;;34.10;94.80;;;;;;5074499;28;20032;-72
2023/08/20 12:30:07;;;;;;;7.70;4.13;;;34.10;96.20;;;;;;5075025;28;20476;-72
2023/08/20 12:32:33;;;;;;;7.10;4.40;;;34.10;96.10;;;;;;5076005;28;20056;-72
2023/08/20 12:34:58;;;;;;;10.07;4.05;;;33.90;95.00;;;;;;5074626;28;20484;-71
2023/08/20 12:37:24;;;;;;;11.68;4.43;;;34.00;96.10;;;;;;5076145;28;20024;-71